createdAt,value
2022-12-15T00:02:36.117Z,62.14
2022-12-15T00:05:23.108Z,62.08
2022-12-15T00:08:10.684Z,62.28
2022-12-15T00:10:57.355Z,62.38
2022-12-15T00:13:44.746Z,62.44
2022-12-15T00:16:30.818Z,62.58
2022-12-15T00:19:16.883Z,62.65
2022-12-15T00:22:03.023Z,62.72
2022-12-15T00:24:49.871Z,62.84
2022-12-15T00:27:36.125Z,62.96
2022-12-15T00:30:24.712Z,63.02
2022-12-15T00:33:11.021Z,63.13
2022-12-15T00:35:57.123Z,63.19
2022-12-15T00:38:41.236Z,63.24
2022-12-15T00:41:10.706Z,63.29
2022-12-15T00:43:38.204Z,63.38
2022-12-15T00:46:26.837Z,63.42
2022-12-15T00:48:54.806Z,63.45
2022-12-15T00:51:41.031Z,63.43
2022-12-15T00:54:27.810Z,63.51
2022-12-15T00:57:13.571Z,63.51
2022-12-15T00:59:59.720Z,63.52
2022-12-15T01:02:46.075Z,63.49
2022-12-15T01:05:32.896Z,63.54
2022-12-15T01:08:19.191Z,63.54
2022-12-15T01:11:05.358Z,63.49
2022-12-15T01:13:51.428Z,63.58
2022-12-15T01:16:37.759Z,63.61
2022-12-15T01:19:27.266Z,63.69
2022-12-15T01:21:54.772Z,63.74
2022-12-15T01:24:22.677Z,63.78
2022-12-15T01:26:50.175Z,63.86
2022-12-15T01:29:17.966Z,63.92
2022-12-15T01:31:45.654Z,64.02
2022-12-15T01:34:14.994Z,64.09
2022-12-15T01:36:43.178Z,64.19
2022-12-15T01:39:11.008Z,64.29
2022-12-15T01:41:38.666Z,64.34
2022-12-15T01:44:20.405Z,64.41
2022-12-15T01:46:54.839Z,64.58
2022-12-15T01:49:29.290Z,64.70
2022-12-15T01:52:00.714Z,64.78
2022-12-15T01:54:33.311Z,64.91
2022-12-15T01:57:05.157Z,64.90
2022-12-15T01:59:38.430Z,64.97
2022-12-15T02:02:06.919Z,65.04
2022-12-15T02:04:38.572Z,65.14
2022-12-15T02:07:06.976Z,65.16
2022-12-15T02:09:36.133Z,65.26
2022-12-15T02:12:33.660Z,65.35
2022-12-15T02:15:31.085Z,65.41
2022-12-15T02:18:16.415Z,65.52
2022-12-15T02:21:01.698Z,65.55
2022-12-15T02:24:05.283Z,65.60
2022-12-15T02:27:15.479Z,65.70
2022-12-15T02:30:11.464Z,65.75
2022-12-15T02:32:53.147Z,65.74
2022-12-15T02:35:37.941Z,65.78
2022-12-15T02:38:05.441Z,65.82
2022-12-15T02:40:32.891Z,65.78
2022-12-15T02:43:04.177Z,65.81
2022-12-15T02:46:04.666Z,65.82
2022-12-15T02:49:03.988Z,65.88
2022-12-15T02:51:51.874Z,65.85
2022-12-15T02:54:39.507Z,65.90
2022-12-15T02:57:15.232Z,65.90
2022-12-15T02:59:59.507Z,65.95
2022-12-15T03:02:31.307Z,66.03
2022-12-15T03:05:00.884Z,66.03
2022-12-15T03:07:29.149Z,66.02
2022-12-15T03:09:59.963Z,66.01
2022-12-15T03:12:27.687Z,66.03
2022-12-15T03:14:55.338Z,66.08
2022-12-15T03:17:23.044Z,66.10
2022-12-15T03:19:50.706Z,66.12
2022-12-15T03:22:18.409Z,66.18
2022-12-15T03:24:45.925Z,66.21
2022-12-15T03:27:13.988Z,66.27
2022-12-15T03:29:41.331Z,66.29
2022-12-15T03:32:08.782Z,66.31
2022-12-15T03:34:36.625Z,66.30
2022-12-15T03:37:04.168Z,66.30
2022-12-15T03:39:31.920Z,66.37
2022-12-15T03:41:59.661Z,66.38
2022-12-15T03:44:27.237Z,66.45
2022-12-15T03:46:59.818Z,66.47
2022-12-15T03:49:25.411Z,66.51
2022-12-15T03:51:53.523Z,66.52
2022-12-15T03:54:21.663Z,66.59
2022-12-15T03:56:49.688Z,66.58
2022-12-15T03:59:17.072Z,66.60
2022-12-15T04:01:48.711Z,66.58
2022-12-15T04:04:16.533Z,66.67
2022-12-15T04:06:44.228Z,66.69
2022-12-15T04:09:11.733Z,66.71
2022-12-15T04:11:39.381Z,66.70
2022-12-15T04:14:06.875Z,66.74
2022-12-15T04:16:34.788Z,66.82
2022-12-15T04:19:20.811Z,66.81
2022-12-15T04:21:48.686Z,66.85
2022-12-15T04:24:34.720Z,66.74
2022-12-15T04:27:20.890Z,66.72
2022-12-15T04:30:06.804Z,66.76
2022-12-15T04:32:52.884Z,66.76
2022-12-15T04:35:38.728Z,66.74
2022-12-15T04:38:25.188Z,66.85
2022-12-15T04:41:11.332Z,66.92
2022-12-15T04:43:58.442Z,66.97
2022-12-15T04:46:45.016Z,67.01
2022-12-15T04:49:30.759Z,67.13
2022-12-15T04:52:16.665Z,67.19
2022-12-15T04:55:02.475Z,67.25
2022-12-15T04:57:48.505Z,67.38
2022-12-15T05:00:34.567Z,67.51
2022-12-15T05:03:25.152Z,67.61
2022-12-15T05:06:11.170Z,67.75
2022-12-15T05:08:57.864Z,67.88
2022-12-15T05:11:44.148Z,67.96
2022-12-15T05:14:30.530Z,67.99
2022-12-15T05:17:16.541Z,67.98
2022-12-15T05:20:02.939Z,68.03
2022-12-15T05:22:49.121Z,68.06
2022-12-15T05:25:35.350Z,68.04
2022-12-15T05:28:26.158Z,68.08
2022-12-15T05:31:11.981Z,68.14
2022-12-15T05:33:39.707Z,68.17
2022-12-15T05:36:08.773Z,68.14
2022-12-15T05:38:36.425Z,68.12
2022-12-15T05:41:04.162Z,68.08
2022-12-15T05:43:32.000Z,68.12
2022-12-15T05:46:04.596Z,68.06
2022-12-15T05:48:32.512Z,68.05
2022-12-15T05:51:07.007Z,68.08
2022-12-15T05:53:36.887Z,67.97
2022-12-15T05:56:07.117Z,67.93
2022-12-15T05:58:38.733Z,68.00
2022-12-15T06:01:08.792Z,68.00
2022-12-15T06:03:37.269Z,68.02
2022-12-15T06:06:07.208Z,68.02
2022-12-15T06:08:37.649Z,67.97
2022-12-15T06:11:06.003Z,67.81
2022-12-15T06:13:35.203Z,67.97
2022-12-15T06:16:13.069Z,67.96
2022-12-15T06:18:44.586Z,68.00
2022-12-15T06:21:18.288Z,68.01
2022-12-15T06:23:46.662Z,68.10
2022-12-15T06:26:21.263Z,68.13
2022-12-15T06:28:50.208Z,68.12
2022-12-15T06:31:21.945Z,68.24
2022-12-15T06:33:53.505Z,68.31
2022-12-15T06:36:20.194Z,68.31
2022-12-15T06:38:49.956Z,68.48
2022-12-15T06:41:20.745Z,68.65
2022-12-15T06:43:57.468Z,68.79
2022-12-15T06:46:28.130Z,68.86
2022-12-15T06:48:55.966Z,68.96
2022-12-15T06:51:23.734Z,69.12
2022-12-15T06:53:54.985Z,69.12
2022-12-15T06:56:33.055Z,69.27
2022-12-15T06:58:58.706Z,69.34
2022-12-15T07:01:27.027Z,69.39
2022-12-15T07:03:55.767Z,69.43
2022-12-15T07:06:23.680Z,69.53
2022-12-15T07:08:53.886Z,69.65
2022-12-15T07:11:22.608Z,69.68
2022-12-15T07:13:53.229Z,69.76
2022-12-15T07:16:22.525Z,69.94
2022-12-15T07:18:50.538Z,69.91
2022-12-15T07:21:18.357Z,69.82
2022-12-15T07:23:54.808Z,69.59
2022-12-15T07:26:15.862Z,69.71
2022-12-15T07:28:43.813Z,69.83
2022-12-15T07:31:11.371Z,69.78
2022-12-15T07:33:39.230Z,69.62
2022-12-15T07:36:08.132Z,69.41
2022-12-15T07:38:36.162Z,69.24
2022-12-15T07:41:07.689Z,69.36
2022-12-15T07:43:36.326Z,69.43
2022-12-15T07:46:05.707Z,69.52
2022-12-15T07:48:33.727Z,69.32
2022-12-15T07:51:15.197Z,69.09
2022-12-15T07:53:38.234Z,69.05
2022-12-15T07:56:09.019Z,69.13
2022-12-15T07:58:38.135Z,68.96
2022-12-15T08:01:08.582Z,69.12
2022-12-15T08:03:37.516Z,69.15
2022-12-15T08:06:08.030Z,69.07
2022-12-15T08:08:36.266Z,69.14
2022-12-15T08:11:13.716Z,69.23
2022-12-15T08:14:17.113Z,69.29
2022-12-15T08:16:13.010Z,69.37
2022-12-15T08:18:40.487Z,69.49
2022-12-15T08:21:10.361Z,69.48
2022-12-15T08:23:39.769Z,69.51
2022-12-15T08:26:13.889Z,69.41
2022-12-15T08:28:42.469Z,69.39
2022-12-15T08:31:17.484Z,69.45
2022-12-15T08:33:45.830Z,69.38
2022-12-15T08:36:16.707Z,69.43
2022-12-15T08:38:46.207Z,69.36
2022-12-15T08:41:18.641Z,69.30
2022-12-15T08:43:49.262Z,69.38
2022-12-15T08:46:20.331Z,69.44
2022-12-15T08:48:48.711Z,69.48
2022-12-15T08:51:17.677Z,69.35
2022-12-15T08:53:46.495Z,69.39
2022-12-15T08:56:20.454Z,69.33
2022-12-15T08:58:48.865Z,69.23
2022-12-15T09:01:23.428Z,69.17
2022-12-15T09:03:51.098Z,69.18
2022-12-15T09:06:26.121Z,69.19
2022-12-15T09:08:59.337Z,69.16
2022-12-15T09:11:28.707Z,69.23
2022-12-15T09:13:57.719Z,69.17
2022-12-15T09:16:26.103Z,68.81
2022-12-15T09:18:58.148Z,68.73
2022-12-15T09:21:29.887Z,68.65
2022-12-15T09:24:01.240Z,68.77
2022-12-15T09:26:32.680Z,68.97
2022-12-15T09:29:01.456Z,69.09
2022-12-15T09:31:33.209Z,69.07
2022-12-15T09:34:01.928Z,68.93
2022-12-15T09:36:31.997Z,68.86
2022-12-15T09:39:01.482Z,68.75
2022-12-15T09:41:35.113Z,68.81
2022-12-15T09:44:17.005Z,68.73
2022-12-15T09:47:08.270Z,68.83
2022-12-15T09:49:58.062Z,68.67
2022-12-15T09:52:29.683Z,68.21
2022-12-15T09:54:58.871Z,68.03
2022-12-15T09:57:52.851Z,67.90
2022-12-15T10:00:35.996Z,67.60
2022-12-15T10:03:44.178Z,67.57
2022-12-15T10:09:21.028Z,67.39
2022-12-15T10:12:05.173Z,67.19
2022-12-15T10:14:50.077Z,67.13
2022-12-15T10:17:23.076Z,67.21
2022-12-15T10:19:59.620Z,66.80
2022-12-15T10:22:32.743Z,66.92
2022-12-15T10:25:20.938Z,66.89
2022-12-15T10:27:55.370Z,67.08
2022-12-15T10:30:23.538Z,67.01
2022-12-15T10:33:12.003Z,66.67
2022-12-15T10:35:40.833Z,66.61
2022-12-15T10:38:25.794Z,66.89
2022-12-15T10:41:01.181Z,67.21
2022-12-15T10:46:22.992Z,67.05
2022-12-15T10:49:09.639Z,67.17
2022-12-15T10:51:48.413Z,67.29
2022-12-15T10:54:17.827Z,67.23
2022-12-15T10:56:56.057Z,67.44
2022-12-15T10:59:31.448Z,67.49
2022-12-15T11:02:27.434Z,67.66
2022-12-15T11:05:15.711Z,67.65
2022-12-15T11:07:56.543Z,67.67
2022-12-15T11:10:32.710Z,67.62
2022-12-15T11:13:17.130Z,67.38
2022-12-15T11:15:54.995Z,67.00
2022-12-15T11:18:55.489Z,66.95
2022-12-15T11:21:39.705Z,66.81
2022-12-15T11:24:30.455Z,66.79
2022-12-15T11:27:24.630Z,66.65
2022-12-15T11:30:15.301Z,66.17
2022-12-15T11:32:52.136Z,65.96
2022-12-15T11:38:44.330Z,65.29
2022-12-15T11:42:00.381Z,65.33
2022-12-15T11:44:44.857Z,65.27
2022-12-15T11:47:35.612Z,65.51
2022-12-15T11:50:38.277Z,65.82
2022-12-15T11:53:19.273Z,65.90
2022-12-15T11:56:10.204Z,66.04
2022-12-15T11:59:01.659Z,65.84
2022-12-15T12:02:03.024Z,65.97
2022-12-15T12:04:56.785Z,66.39
2022-12-15T12:07:42.449Z,66.75
2022-12-15T12:10:36.458Z,66.80
2022-12-15T12:13:46.224Z,66.86
2022-12-15T12:16:23.961Z,66.88
2022-12-15T12:19:05.433Z,66.91
2022-12-15T12:21:38.208Z,66.91
2022-12-15T12:24:19.776Z,66.87
2022-12-15T12:27:05.562Z,66.89
2022-12-15T12:29:44.582Z,66.91
2022-12-15T12:32:25.208Z,66.85
2022-12-15T12:35:31.089Z,66.86
2022-12-15T12:38:05.161Z,66.81
2022-12-15T12:41:02.042Z,66.79
2022-12-15T12:43:36.829Z,66.77
2022-12-15T12:46:19.179Z,66.98
2022-12-15T12:49:03.959Z,66.96
2022-12-15T12:51:39.085Z,66.99
2022-12-15T12:54:37.938Z,67.05
2022-12-15T12:57:16.757Z,66.82
2022-12-15T12:59:49.873Z,66.58
2022-12-15T13:02:26.190Z,66.95
2022-12-15T13:05:26.684Z,67.07
2022-12-15T13:08:11.941Z,66.86
2022-12-15T13:10:45.308Z,66.76
2022-12-15T13:13:38.274Z,66.44
2022-12-15T13:16:27.284Z,66.42
2022-12-15T13:19:02.949Z,66.30
2022-12-15T13:21:48.933Z,66.39
2022-12-15T13:24:50.454Z,66.06
2022-12-15T13:27:19.535Z,65.96
2022-12-15T13:30:04.347Z,66.01
2022-12-15T13:32:40.792Z,66.03
2022-12-15T13:35:22.385Z,65.84
2022-12-15T13:38:06.139Z,65.67
2022-12-15T13:40:50.959Z,65.80
2022-12-15T13:43:34.950Z,66.00
2022-12-15T13:46:16.651Z,65.90
2022-12-15T13:48:52.733Z,65.85
2022-12-15T13:51:33.156Z,66.06
2022-12-15T13:54:17.496Z,66.28
2022-12-15T13:57:02.888Z,66.44
2022-12-15T13:59:44.252Z,66.50
2022-12-15T14:02:35.421Z,66.48
2022-12-15T14:05:16.739Z,66.57
2022-12-15T14:07:58.177Z,66.63
2022-12-15T14:10:54.403Z,66.72
2022-12-15T14:13:33.290Z,66.88
2022-12-15T14:16:21.739Z,66.95
2022-12-15T14:19:16.910Z,67.04
2022-12-15T14:21:57.179Z,67.21
2022-12-15T14:24:40.848Z,67.26
2022-12-15T14:27:06.102Z,67.39
2022-12-15T14:29:34.017Z,67.50
2022-12-15T14:32:02.199Z,67.61
2022-12-15T14:34:35.274Z,67.68
2022-12-15T14:37:07.630Z,67.85
2022-12-15T14:39:42.750Z,67.94
2022-12-15T14:42:20.818Z,68.08
2022-12-15T14:44:52.070Z,68.24
2022-12-15T14:47:31.770Z,68.35
2022-12-15T14:50:03.073Z,68.50
2022-12-15T14:52:40.997Z,68.66
2022-12-15T14:55:36.607Z,68.75
2022-12-15T14:58:26.113Z,68.87
2022-12-15T15:00:56.018Z,69.01
2022-12-15T15:03:04.489Z,67.16
2022-12-15T15:03:10.572Z,67.15
2022-12-15T15:03:13.789Z,65.08
2022-12-15T15:03:38.605Z,69.15
2022-12-15T15:06:17.172Z,69.21
2022-12-15T15:08:50.915Z,69.31
2022-12-15T15:11:33.508Z,69.47
2022-12-15T15:14:06.449Z,69.52
2022-12-15T15:16:39.373Z,69.70
2022-12-15T15:19:07.540Z,69.83
2022-12-15T15:21:36.855Z,69.88
2022-12-15T15:24:16.052Z,69.95
2022-12-15T15:26:43.862Z,70.07
2022-12-15T15:29:40.874Z,70.19
2022-12-15T15:32:21.751Z,70.22
2022-12-15T15:34:50.739Z,70.17
2022-12-15T15:37:22.752Z,70.12
2022-12-15T15:39:53.438Z,70.06
2022-12-15T15:42:25.458Z,69.96
2022-12-15T15:44:51.658Z,69.84
2022-12-15T15:47:25.694Z,69.83
2022-12-15T15:49:55.430Z,69.73
2022-12-15T15:52:23.097Z,69.76
2022-12-15T15:54:53.089Z,69.87
2022-12-15T15:57:20.764Z,70.05
2022-12-15T15:59:48.319Z,70.18
2022-12-15T16:02:15.913Z,70.30
2022-12-15T16:04:44.273Z,70.41
2022-12-15T16:07:46.359Z,70.48
2022-12-15T16:10:17.721Z,70.64
2022-12-15T16:12:54.925Z,70.71
2022-12-15T16:15:29.397Z,70.81
2022-12-15T16:17:59.082Z,70.94
2022-12-15T16:20:29.949Z,71.05
2022-12-15T16:23:20.927Z,71.17
2022-12-15T16:25:56.136Z,71.29
2022-12-15T16:28:27.737Z,71.41
2022-12-15T16:30:58.247Z,71.54
2022-12-15T16:33:25.986Z,71.51
2022-12-15T16:35:53.931Z,71.38
2022-12-15T16:38:31.643Z,71.26
2022-12-15T16:41:06.756Z,71.04
2022-12-15T16:43:39.190Z,71.09
2022-12-15T16:46:06.145Z,71.18
2022-12-15T16:48:34.510Z,71.29
2022-12-15T16:51:07.089Z,71.34
2022-12-15T16:53:38.925Z,71.39
2022-12-15T16:56:08.294Z,71.19
2022-12-15T16:58:36.195Z,71.02
2022-12-15T17:01:04.466Z,71.30
2022-12-15T17:03:32.334Z,71.44
2022-12-15T17:06:04.550Z,71.47
2022-12-15T17:08:51.048Z,71.37
2022-12-15T17:11:22.472Z,70.96
2022-12-15T17:13:53.185Z,71.06
2022-12-15T17:16:23.139Z,71.14
2022-12-15T17:18:51.257Z,70.96
2022-12-15T17:21:42.310Z,70.99
2022-12-15T17:24:15.179Z,71.10
2022-12-15T17:26:44.108Z,71.06
2022-12-15T17:29:19.061Z,71.00
2022-12-15T17:31:46.905Z,70.94
2022-12-15T17:34:32.887Z,70.79
2022-12-15T17:37:04.074Z,70.75
2022-12-15T17:39:34.401Z,70.64
2022-12-15T17:42:03.274Z,70.57
2022-12-15T17:44:37.899Z,70.78
2022-12-15T17:47:08.407Z,70.98
2022-12-15T17:49:38.043Z,71.04
2022-12-15T17:52:14.624Z,70.93
2022-12-15T17:54:42.746Z,71.14
2022-12-15T17:57:13.058Z,71.32
2022-12-15T17:59:40.864Z,71.46
2022-12-15T18:02:15.125Z,71.64
2022-12-15T18:04:43.767Z,71.84
2022-12-15T18:07:23.111Z,71.92
2022-12-15T18:09:51.882Z,72.03
2022-12-15T18:12:25.799Z,71.93
2022-12-15T18:14:55.144Z,72.24
2022-12-15T18:17:23.544Z,72.69
2022-12-15T18:19:51.321Z,72.75
2022-12-15T18:22:24.343Z,73.68
2022-12-15T18:24:54.336Z,73.92
2022-12-15T18:27:28.459Z,73.90
2022-12-15T18:29:56.964Z,73.96
2022-12-15T18:32:26.998Z,73.83
2022-12-15T18:34:55.666Z,73.94
2022-12-15T18:37:24.325Z,73.95
2022-12-15T18:39:52.083Z,74.07
2022-12-15T18:42:22.444Z,74.11
2022-12-15T18:44:52.969Z,74.04
2022-12-15T18:47:23.516Z,74.08
2022-12-15T18:49:51.476Z,74.21
2022-12-15T18:52:23.069Z,74.17
2022-12-15T18:54:53.327Z,74.31
2022-12-15T18:57:35.288Z,74.26
2022-12-15T19:00:14.446Z,74.22
2022-12-15T19:02:42.959Z,74.26
2022-12-15T19:05:13.003Z,74.69
2022-12-15T19:07:40.888Z,74.54
2022-12-15T19:10:13.208Z,74.87
2022-12-15T19:12:40.510Z,75.04
2022-12-15T19:15:18.248Z,75.38
2022-12-15T19:18:04.468Z,75.18
2022-12-15T19:20:50.391Z,75.49
2022-12-15T19:23:18.254Z,75.68
2022-12-15T19:25:47.034Z,75.77
2022-12-15T19:28:22.032Z,75.66
2022-12-15T19:30:51.681Z,75.47
2022-12-15T19:33:19.646Z,75.43
2022-12-15T19:35:51.020Z,75.23
2022-12-15T19:38:24.364Z,75.10
2022-12-15T19:40:54.116Z,74.96
2022-12-15T19:43:23.802Z,74.82
2022-12-15T19:45:52.237Z,74.73
2022-12-15T19:48:23.396Z,74.68
2022-12-15T19:50:51.243Z,74.45
2022-12-15T19:53:26.254Z,74.28
2022-12-15T19:55:58.303Z,74.27
2022-12-15T19:58:30.478Z,74.22
2022-12-15T20:01:09.752Z,74.36
2022-12-15T20:03:38.773Z,74.35
2022-12-15T20:06:19.246Z,74.32
2022-12-15T20:08:50.229Z,74.46
2022-12-15T20:11:25.809Z,74.53
2022-12-15T20:13:54.104Z,74.58
2022-12-15T20:16:22.508Z,74.47
2022-12-15T20:18:53.040Z,74.47
2022-12-15T20:21:25.464Z,74.46
2022-12-15T20:24:01.856Z,74.37
2022-12-15T20:26:31.219Z,74.37
2022-12-15T20:28:59.384Z,74.44
2022-12-15T20:31:27.010Z,74.41
2022-12-15T20:33:55.348Z,74.39
2022-12-15T20:36:29.484Z,74.44
2022-12-15T20:38:57.661Z,74.45
2022-12-15T20:41:28.143Z,74.46
2022-12-15T20:43:56.848Z,74.48
2022-12-15T20:46:29.713Z,74.51
2022-12-15T20:48:57.175Z,74.55
2022-12-15T20:51:31.458Z,74.47
2022-12-15T20:54:02.167Z,74.40
2022-12-15T20:56:29.931Z,74.29
2022-12-15T20:58:58.659Z,74.24
2022-12-15T21:01:34.815Z,74.23
2022-12-15T21:04:19.893Z,74.20
2022-12-15T21:06:51.332Z,74.22
2022-12-15T21:09:20.066Z,74.12
2022-12-15T21:11:48.007Z,74.03
2022-12-15T21:14:21.850Z,74.03
2022-12-15T21:16:50.046Z,74.00
2022-12-15T21:19:20.951Z,73.79
2022-12-15T21:21:52.557Z,73.51
2022-12-15T21:24:26.127Z,73.44
2022-12-15T21:26:53.609Z,73.23
2022-12-15T21:29:25.142Z,73.05
2022-12-15T21:31:53.386Z,73.01
2022-12-15T21:34:21.584Z,73.03
2022-12-15T21:36:52.349Z,72.95
2022-12-15T21:39:29.221Z,73.07
2022-12-15T21:42:00.741Z,73.16
2022-12-15T21:44:28.275Z,73.22
2022-12-15T21:46:56.137Z,73.20
2022-12-15T21:49:25.038Z,73.24
2022-12-15T21:51:56.042Z,73.25
2022-12-15T21:54:30.970Z,73.16
2022-12-15T21:56:57.138Z,73.08
2022-12-15T21:59:28.395Z,73.12
2022-12-15T22:01:56.115Z,73.05
2022-12-15T22:04:28.490Z,73.20
2022-12-15T22:06:56.088Z,73.24
2022-12-15T22:09:24.338Z,73.15
2022-12-15T22:11:54.109Z,73.01
2022-12-15T22:14:31.059Z,73.03
2022-12-15T22:17:00.310Z,72.96
2022-12-15T22:19:27.941Z,73.04
2022-12-15T22:21:55.840Z,72.98
2022-12-15T22:24:23.484Z,73.00
2022-12-15T22:26:51.099Z,72.85
2022-12-15T22:29:21.558Z,72.78
2022-12-15T22:31:50.200Z,72.76
2022-12-15T22:34:21.287Z,72.92
2022-12-15T22:36:50.072Z,73.00
2022-12-15T22:39:18.744Z,73.08
2022-12-15T22:41:50.369Z,73.15
2022-12-15T22:44:27.598Z,73.20
2022-12-15T22:46:58.639Z,73.20
2022-12-15T22:49:30.340Z,73.02
2022-12-15T22:51:57.887Z,73.25
2022-12-15T22:54:28.847Z,73.17
2022-12-15T22:57:03.745Z,72.99
2022-12-15T22:59:41.539Z,72.93
2022-12-15T23:02:10.519Z,72.89
2022-12-15T23:04:38.251Z,72.81
2022-12-15T23:07:10.079Z,72.88
2022-12-15T23:09:38.720Z,72.84
2022-12-15T23:12:07.273Z,72.62
2022-12-15T23:14:52.867Z,72.58
2022-12-15T23:17:21.341Z,72.84
2022-12-15T23:19:48.759Z,73.18
2022-12-15T23:22:16.670Z,73.25
2022-12-15T23:24:44.279Z,73.40
2022-12-15T23:27:12.204Z,73.61
2022-12-15T23:29:39.961Z,73.83
2022-12-15T23:32:07.505Z,73.68
2022-12-15T23:34:35.758Z,73.60
2022-12-15T23:37:03.726Z,73.44
2022-12-15T23:39:31.324Z,73.47
2022-12-15T23:41:58.749Z,73.61
2022-12-15T23:44:26.253Z,73.70
2022-12-15T23:46:53.943Z,73.80
2022-12-15T23:49:21.607Z,73.79
2022-12-15T23:51:49.062Z,73.88
2022-12-15T23:54:16.864Z,73.79
2022-12-15T23:56:44.593Z,73.76
2022-12-15T23:59:12.797Z,73.69
